ADDS METAR Data INFO
IDs: Format: Raw Decoded Include TAF

Data at: 2307 UTC 21 Feb 2018

KALB 212251Z 29014KT 10SM FEW025 BKN060 OVC080 11/07 A3032 RMK AO2 PK WND 29028/2206 SLP267 SCSL SW BINOVC T01110067
KALB 212151Z 29018KT 10SM FEW030 BKN050 OVC080 12/08 A3029 RMK AO2 PK WND 29029/2104 RAB00E08 SLP257 P0000 T01220078
KALB 212051Z 28019G27KT 10SM FEW030 BKN060 OVC080 15/09 A3022 RMK AO2 PK WND 29033/2022 RAE1958 SLP235 VCSH W-N OCNL BINOVC P0000 60000 T01500094 53045
KALB 211951Z 30024G31KT 10SM -RA BKN055 BKN075 OVC260 21/12 A3014 RMK AO2 PK WND 30031/1949 RAB42 PRESRR SLP205 PCPN VRY LGT BINOVC P0000 T02110117
KALB 211851Z 19009KT 10SM BKN065 BKN090 21/12 A3010 RMK AO2 SLP193 T02110122 $
KALB 211751Z 16013G20KT 10SM FEW035 SCT210 SCT260 21/12 A3009 RMK AO2 SLP188 T02110122 10217 20133 58025
KALB 211651Z 17015G20KT 10SM FEW030 SCT210 BKN260 19/12 A3012 RMK AO2 SLP198 T01940122
KALB 211551Z 18014KT 10SM SCT200 BKN260 17/12 A3014 RMK AO2 SLP205 T01720122
KALB 211451Z 18011G18KT 10SM FEW007 SCT200 BKN260 15/12 A3016 RMK AO2 SLP215 T01500122 58004
KALB 211438Z 18010G18KT 10SM SCT007 SCT200 BKN260 15/12 A3017 RMK AO2 T01500117
KALB 211351Z 18011KT 10SM OVC006 14/12 A3019 RMK AO2 SLP222 T01390117
KALB 211251Z 17013G17KT 8SM OVC005 13/11 A3018 RMK AO2 SLP221 T01330111
KALB 210751Z 19007KT 10SM FEW260 13/10 A3021 RMK AO2 SLP232 T01280100
KALB 210651Z 16010KT 10SM SCT260 14/11 A3022 RMK AO2 SLP232 T01390106
KALB 210551Z 17007KT 10SM BKN260 14/10 A3021 RMK AO2 SLP231 T01390100 10156 20139 58004
KALB 201451Z 17013KT 10SM FEW009 FEW046 BKN080 BKN130 09/06 A3023 RMK AO2 SLP238 T00940061 50001
KALB 201413Z 18009KT 10SM SCT008 BKN046 BKN075 08/06 A3024 RMK AO2 SCT V BKN T00830061
KALB 201351Z 17011KT 9SM BKN006 OVC075 08/06 A3024 RMK AO2 SLP241 BKN V SCT BINOVC T00780056
KALB 201251Z 17009KT 7SM BKN006 OVC075 07/05 A3024 RMK AO2 SLP242 T00720050
KALB 201151Z 17010KT 3SM BR OVC005 07/05 A3023 RMK AO2 SFC VIS 4 SLP238 60001 70030 T00670050 10067 20067 52006